createdAt,value
2023-03-22T00:04:01.067Z,4.43
2023-03-22T00:09:02.675Z,4.70
2023-03-22T00:14:04.373Z,4.65
2023-03-22T00:19:05.616Z,4.37
2023-03-22T00:24:07.117Z,4.28
2023-03-22T00:29:08.468Z,4.85
2023-03-22T00:34:09.730Z,4.33
2023-03-22T00:39:11.013Z,4.68
2023-03-22T00:44:12.312Z,3.80
2023-03-22T00:49:13.604Z,4.18
2023-03-22T00:54:15.986Z,5.00
2023-03-22T00:59:17.286Z,4.73
2023-03-22T01:04:25.958Z,3.90
2023-03-22T01:09:33.510Z,4.00
2023-03-22T01:14:34.775Z,4.10
2023-03-22T01:19:36.674Z,3.60
2023-03-22T01:24:38.011Z,3.83
2023-03-22T01:29:39.272Z,4.40
2023-03-22T01:34:40.820Z,3.73
2023-03-22T01:39:42.193Z,3.70
2023-03-22T01:44:44.842Z,3.85
2023-03-22T01:49:46.203Z,3.70
2023-03-22T01:54:48.849Z,3.38
2023-03-22T01:59:50.310Z,3.00
2023-03-22T02:04:57.998Z,3.42
2023-03-22T02:09:59.688Z,3.42
2023-03-22T02:15:07.242Z,3.27
2023-03-22T02:20:11.472Z,3.50
2023-03-22T02:25:24.747Z,3.10
2023-03-22T02:30:43.316Z,4.40
2023-03-22T02:35:47.368Z,3.80
2023-03-22T02:41:08.142Z,4.00
2023-03-22T02:46:30.652Z,3.78
2023-03-22T02:51:40.210Z,3.50
2023-03-22T02:56:44.497Z,3.53
2023-03-22T03:01:48.433Z,3.35
2023-03-22T03:06:51.768Z,3.80
2023-03-22T03:11:53.611Z,3.53
2023-03-22T03:17:06.531Z,3.57
2023-03-22T03:22:24.212Z,3.15
2023-03-22T03:27:32.379Z,3.40
2023-03-22T03:33:06.456Z,3.60
2023-03-22T03:38:19.264Z,3.25
2023-03-22T03:43:20.777Z,3.33
2023-03-22T03:48:23.547Z,3.75
2023-03-22T03:53:25.148Z,3.42
2023-03-22T03:58:26.523Z,3.50
2023-03-22T04:03:27.815Z,4.05
2023-03-22T04:08:29.244Z,3.73
2023-03-22T04:13:30.562Z,3.60
2023-03-22T04:18:32.109Z,4.40
2023-03-22T04:23:33.356Z,3.57
2023-03-22T04:28:34.587Z,4.35
2023-03-22T04:33:39.262Z,3.93
2023-03-22T04:38:40.830Z,4.13
2023-03-22T04:43:42.373Z,3.90
2023-03-22T04:48:43.828Z,4.00
2023-03-22T04:53:45.092Z,3.70
2023-03-22T04:58:46.651Z,4.37
2023-03-22T05:03:48.307Z,3.65
2023-03-22T05:08:49.583Z,3.55
2023-03-22T05:13:50.902Z,3.70
2023-03-22T05:18:54.387Z,3.75
2023-03-22T05:23:56.624Z,3.50
2023-03-22T05:28:58.069Z,3.95
2023-03-22T05:33:59.367Z,3.58
2023-03-22T05:39:00.651Z,4.23
2023-03-22T05:44:01.962Z,4.30
2023-03-22T05:49:03.295Z,5.33
2023-03-22T05:54:04.573Z,4.35
2023-03-22T05:59:06.021Z,4.30
2023-03-22T06:04:07.280Z,4.90
2023-03-22T06:09:16.870Z,4.88
2023-03-22T06:14:18.481Z,4.17
2023-03-22T06:19:19.774Z,4.40
2023-03-22T06:24:21.397Z,4.40
2023-03-22T06:29:22.750Z,3.90
2023-03-22T06:34:24.020Z,4.72
2023-03-22T06:39:25.531Z,6.23
2023-03-22T06:44:26.874Z,4.55
2023-03-22T06:49:28.375Z,3.83
2023-03-22T06:54:29.703Z,3.90
2023-03-22T06:59:30.990Z,4.05
2023-03-22T07:04:33.092Z,3.80
2023-03-22T07:09:34.470Z,3.53
2023-03-22T07:14:36.329Z,3.42
2023-03-22T07:19:37.620Z,3.13
2023-03-22T07:24:47.406Z,3.10
2023-03-22T07:31:04.315Z,3.37
2023-03-22T07:36:06.953Z,2.88
2023-03-22T07:41:08.316Z,2.28
2023-03-22T07:46:09.665Z,2.30
2023-03-22T07:51:10.997Z,2.88
2023-03-22T07:56:12.329Z,2.37
2023-03-22T08:01:13.633Z,3.30
2023-03-22T08:06:16.273Z,2.20
2023-03-22T08:11:17.562Z,2.87
2023-03-22T08:16:18.938Z,1.90
2023-03-22T08:21:20.376Z,3.47
2023-03-22T08:26:22.196Z,2.70
2023-03-22T08:31:23.733Z,2.20
2023-03-22T08:36:25.576Z,2.03
2023-03-22T08:41:27.145Z,2.53
2023-03-22T08:46:28.515Z,1.80
2023-03-22T08:51:31.240Z,1.77
2023-03-22T08:56:37.312Z,1.60
2023-03-22T09:01:38.760Z,1.50
2023-03-22T09:06:42.924Z,1.60
2023-03-22T09:11:44.783Z,2.03
2023-03-22T09:16:46.665Z,1.30
2023-03-22T09:21:47.927Z,1.30
2023-03-22T09:26:49.678Z,1.52
2023-03-22T09:31:51.081Z,1.23
2023-03-22T09:36:55.766Z,2.13
2023-03-22T09:42:01.103Z,1.85
2023-03-22T09:47:05.319Z,1.30
2023-03-22T09:52:11.917Z,1.40
2023-03-22T09:57:32.673Z,1.60
2023-03-22T10:02:40.109Z,1.60
2023-03-22T10:07:50.591Z,1.80
2023-03-22T10:13:06.305Z,1.00
2023-03-22T10:18:26.508Z,1.60
2023-03-22T10:23:30.361Z,2.05
2023-03-22T10:28:36.993Z,1.10
2023-03-22T10:33:39.807Z,3.05
2023-03-22T10:38:45.422Z,1.13
2023-03-22T10:43:49.247Z,5.40
2023-03-22T10:48:53.031Z,1.23
2023-03-22T10:53:55.444Z,1.48
2023-03-22T10:58:57.317Z,2.15
2023-03-22T11:04:14.982Z,1.50
2023-03-22T11:09:17.378Z,1.15
2023-03-22T11:14:25.072Z,1.60
2023-03-22T11:19:32.436Z,1.20
2023-03-22T11:24:34.225Z,0.93
2023-03-22T11:29:46.129Z,1.23
2023-03-22T11:34:47.677Z,1.30
2023-03-22T11:39:49.906Z,1.20
2023-03-22T11:44:52.594Z,1.10
2023-03-22T11:49:57.198Z,3.37
2023-03-22T11:54:59.091Z,1.00
2023-03-22T12:00:08.087Z,3.35
2023-03-22T12:05:17.149Z,1.30
2023-03-22T12:10:18.509Z,1.00
2023-03-22T12:15:23.888Z,1.20
2023-03-22T12:20:43.019Z,1.17
2023-03-22T12:25:53.438Z,1.10
2023-03-22T12:30:56.480Z,2.03
2023-03-22T12:36:00.628Z,2.80
2023-03-22T12:41:03.112Z,1.93
2023-03-22T12:46:05.393Z,2.03
2023-03-22T12:51:07.986Z,1.40
2023-03-22T12:56:19.895Z,1.53
2023-03-22T13:01:21.849Z,2.03
2023-03-22T13:06:28.911Z,2.20
2023-03-22T13:11:30.271Z,1.30
2023-03-22T13:16:43.829Z,2.20
2023-03-22T13:21:47.885Z,1.33
2023-03-22T13:26:51.504Z,1.00
2023-03-22T13:32:03.171Z,1.30
2023-03-22T13:37:16.506Z,2.15
2023-03-22T13:42:19.730Z,1.27
2023-03-22T13:47:41.422Z,1.23
2023-03-22T13:52:46.206Z,1.43
2023-03-22T13:57:50.140Z,1.10
2023-03-22T14:02:51.598Z,3.28
2023-03-22T14:07:53.996Z,1.33
2023-03-22T14:13:24.849Z,2.20
2023-03-22T14:18:31.447Z,1.30
